sensor_id;sensor_type;location;lat;lon;timestamp;temperature;humidity
54006;DHT22;39919;38.160;-122.260;2023-06-10T00:01:10;22.50;61.10
54006;DHT22;39919;38.160;-122.260;2023-06-10T00:03:39;22.60;61.50
54006;DHT22;39919;38.160;-122.260;2023-06-10T00:06:12;22.60;61.50
54006;DHT22;39919;38.160;-122.260;2023-06-10T00:08:44;22.60;61.10
54006;DHT22;39919;38.160;-122.260;2023-06-10T00:11:19;22.70;61.10
54006;DHT22;39919;38.160;-122.260;2023-06-10T00:13:52;22.70;61.00
54006;DHT22;39919;38.160;-122.260;2023-06-10T00:16:32;22.80;60.60
54006;DHT22;39919;38.160;-122.260;2023-06-10T00:19:02;22.90;60.50
54006;DHT22;39919;38.160;-122.260;2023-06-10T00:21:34;22.90;60.60
54006;DHT22;39919;38.160;-122.260;2023-06-10T00:24:07;22.90;60.60
54006;DHT22;39919;38.160;-122.260;2023-06-10T00:26:42;22.90;59.90
54006;DHT22;39919;38.160;-122.260;2023-06-10T00:29:16;22.90;59.70
54006;DHT22;39919;38.160;-122.260;2023-06-10T00:31:50;22.90;59.50
54006;DHT22;39919;38.160;-122.260;2023-06-10T00:34:27;22.90;59.90
54006;DHT22;39919;38.160;-122.260;2023-06-10T00:36:56;22.90;59.90
54006;DHT22;39919;38.160;-122.260;2023-06-10T00:39:25;22.90;59.90
54006;DHT22;39919;38.160;-122.260;2023-06-10T00:41:57;22.90;59.80
54006;DHT22;39919;38.160;-122.260;2023-06-10T00:44:31;22.80;59.90
54006;DHT22;39919;38.160;-122.260;2023-06-10T00:47:04;22.70;60.20
54006;DHT22;39919;38.160;-122.260;2023-06-10T00:49:34;22.70;60.30
54006;DHT22;39919;38.160;-122.260;2023-06-10T00:52:12;22.60;60.20
54006;DHT22;39919;38.160;-122.260;2023-06-10T00:54:47;22.60;60.00
54006;DHT22;39919;38.160;-122.260;2023-06-10T00:57:25;22.50;60.00
54006;DHT22;39919;38.160;-122.260;2023-06-10T01:00:02;22.50;60.30
54006;DHT22;39919;38.160;-122.260;2023-06-10T01:02:37;22.30;60.50
54006;DHT22;39919;38.160;-122.260;2023-06-10T01:05:09;22.30;60.50
54006;DHT22;39919;38.160;-122.260;2023-06-10T01:07:43;22.20;60.50
54006;DHT22;39919;38.160;-122.260;2023-06-10T01:10:22;22.10;60.60
54006;DHT22;39919;38.160;-122.260;2023-06-10T01:13:07;22.00;60.70
54006;DHT22;39919;38.160;-122.260;2023-06-10T01:15:39;21.90;60.60
54006;DHT22;39919;38.160;-122.260;2023-06-10T01:18:11;21.70;61.00
54006;DHT22;39919;38.160;-122.260;2023-06-10T01:20:42;21.70;60.70
54006;DHT22;39919;38.160;-122.260;2023-06-10T01:23:20;21.60;61.10
54006;DHT22;39919;38.160;-122.260;2023-06-10T01:25:57;21.50;61.10
54006;DHT22;39919;38.160;-122.260;2023-06-10T01:28:46;21.40;61.30
54006;DHT22;39919;38.160;-122.260;2023-06-10T01:31:33;21.30;61.50
54006;DHT22;39919;38.160;-122.260;2023-06-10T01:34:10;21.20;61.40
54006;DHT22;39919;38.160;-122.260;2023-06-10T01:36:42;21.10;61.50
54006;DHT22;39919;38.160;-122.260;2023-06-10T01:39:22;21.00;61.70
54006;DHT22;39919;38.160;-122.260;2023-06-10T01:41:54;20.90;81.20
54006;DHT22;39919;38.160;-122.260;2023-06-10T01:44:34;20.80;88.20
54006;DHT22;39919;38.160;-122.260;2023-06-10T01:47:08;20.80;82.70
54006;DHT22;39919;38.160;-122.260;2023-06-10T01:49:38;20.60;77.90
54006;DHT22;39919;38.160;-122.260;2023-06-10T01:52:08;20.50;63.20
54006;DHT22;39919;38.160;-122.260;2023-06-10T01:54:41;20.40;63.50
54006;DHT22;39919;38.160;-122.260;2023-06-10T01:57:11;20.20;63.60
54006;DHT22;39919;38.160;-122.260;2023-06-10T01:59:40;20.20;63.90
54006;DHT22;39919;38.160;-122.260;2023-06-10T02:02:13;20.10;64.40
54006;DHT22;39919;38.160;-122.260;2023-06-10T02:04:42;20.00;64.40
54006;DHT22;39919;38.160;-122.260;2023-06-10T02:07:20;19.90;64.40
54006;DHT22;39919;38.160;-122.260;2023-06-10T02:09:54;19.80;64.40
54006;DHT22;39919;38.160;-122.260;2023-06-10T02:12:27;19.70;64.50
54006;DHT22;39919;38.160;-122.260;2023-06-10T02:15:01;19.50;64.80
54006;DHT22;39919;38.160;-122.260;2023-06-10T02:17:30;19.40;65.30
54006;DHT22;39919;38.160;-122.260;2023-06-10T02:20:02;19.30;65.70
54006;DHT22;39919;38.160;-122.260;2023-06-10T02:22:34;19.20;66.00
54006;DHT22;39919;38.160;-122.260;2023-06-10T02:25:08;19.10;66.10
54006;DHT22;39919;38.160;-122.260;2023-06-10T02:27:38;19.00;66.20
54006;DHT22;39919;38.160;-122.260;2023-06-10T02:30:08;19.00;66.50
54006;DHT22;39919;38.160;-122.260;2023-06-10T02:32:40;18.90;66.70
54006;DHT22;39919;38.160;-122.260;2023-06-10T02:35:23;18.80;66.70
54006;DHT22;39919;38.160;-122.260;2023-06-10T02:37:54;18.70;67.00
54006;DHT22;39919;38.160;-122.260;2023-06-10T02:40:25;18.60;67.40
54006;DHT22;39919;38.160;-122.260;2023-06-10T02:42:57;18.50;67.20
54006;DHT22;39919;38.160;-122.260;2023-06-10T02:45:26;18.40;67.40
54006;DHT22;39919;38.160;-122.260;2023-06-10T02:47:56;18.30;67.30
54006;DHT22;39919;38.160;-122.260;2023-06-10T02:50:28;18.20;67.50
54006;DHT22;39919;38.160;-122.260;2023-06-10T02:53:12;18.10;67.60
54006;DHT22;39919;38.160;-122.260;2023-06-10T02:55:45;18.10;67.90
54006;DHT22;39919;38.160;-122.260;2023-06-10T02:58:17;17.90;67.90
54006;DHT22;39919;38.160;-122.260;2023-06-10T03:00:49;17.80;68.10
54006;DHT22;39919;38.160;-122.260;2023-06-10T03:03:21;17.70;68.40
54006;DHT22;39919;38.160;-122.260;2023-06-10T03:05:53;17.60;68.60
54006;DHT22;39919;38.160;-122.260;2023-06-10T03:08:25;17.50;69.10
54006;DHT22;39919;38.160;-122.260;2023-06-10T03:11:04;17.40;69.30
54006;DHT22;39919;38.160;-122.260;2023-06-10T03:13:35;17.30;69.40
54006;DHT22;39919;38.160;-122.260;2023-06-10T03:16:04;17.20;69.90
54006;DHT22;39919;38.160;-122.260;2023-06-10T03:18:39;17.10;70.00
54006;DHT22;39919;38.160;-122.260;2023-06-10T03:21:13;17.00;70.30
54006;DHT22;39919;38.160;-122.260;2023-06-10T03:23:42;16.90;70.60
54006;DHT22;39919;38.160;-122.260;2023-06-10T03:26:16;16.80;70.80
54006;DHT22;39919;38.160;-122.260;2023-06-10T03:28:48;16.70;71.20
54006;DHT22;39919;38.160;-122.260;2023-06-10T03:31:20;16.60;71.50
54006;DHT22;39919;38.160;-122.260;2023-06-10T03:33:49;16.50;71.60
54006;DHT22;39919;38.160;-122.260;2023-06-10T03:36:18;16.40;71.80
54006;DHT22;39919;38.160;-122.260;2023-06-10T03:38:51;16.30;72.30
54006;DHT22;39919;38.160;-122.260;2023-06-10T03:41:25;16.20;72.50
54006;DHT22;39919;38.160;-122.260;2023-06-10T03:44:01;16.10;73.10
54006;DHT22;39919;38.160;-122.260;2023-06-10T03:46:37;16.00;73.20
54006;DHT22;39919;38.160;-122.260;2023-06-10T03:49:13;16.00;73.60
54006;DHT22;39919;38.160;-122.260;2023-06-10T03:51:48;15.90;73.90
54006;DHT22;39919;38.160;-122.260;2023-06-10T03:54:17;15.80;74.20
54006;DHT22;39919;38.160;-122.260;2023-06-10T03:56:55;15.70;74.40
54006;DHT22;39919;38.160;-122.260;2023-06-10T03:59:24;15.70;75.00
54006;DHT22;39919;38.160;-122.260;2023-06-10T04:01:56;15.60;75.10
54006;DHT22;39919;38.160;-122.260;2023-06-10T04:04:31;15.50;75.30
54006;DHT22;39919;38.160;-122.260;2023-06-10T04:07:00;15.50;75.40
54006;DHT22;39919;38.160;-122.260;2023-06-10T04:09:29;15.40;75.60
54006;DHT22;39919;38.160;-122.260;2023-06-10T04:12:09;15.40;75.70
54006;DHT22;39919;38.160;-122.260;2023-06-10T04:14:41;15.30;76.00
54006;DHT22;39919;38.160;-122.260;2023-06-10T04:17:13;15.30;76.10
54006;DHT22;39919;38.160;-122.260;2023-06-10T04:19:43;15.20;76.20
54006;DHT22;39919;38.160;-122.260;2023-06-10T04:22:14;15.20;76.60
54006;DHT22;39919;38.160;-122.260;2023-06-10T04:24:49;15.10;76.50
54006;DHT22;39919;38.160;-122.260;2023-06-10T04:27:21;15.10;76.80
54006;DHT22;39919;38.160;-122.260;2023-06-10T04:29:50;15.00;76.60
54006;DHT22;39919;38.160;-122.260;2023-06-10T04:32:22;15.00;76.80
54006;DHT22;39919;38.160;-122.260;2023-06-10T04:35:00;14.90;77.10
54006;DHT22;39919;38.160;-122.260;2023-06-10T04:37:32;14.90;77.40
54006;DHT22;39919;38.160;-122.260;2023-06-10T04:40:01;14.90;77.00
54006;DHT22;39919;38.160;-122.260;2023-06-10T04:42:34;14.80;77.10
54006;DHT22;39919;38.160;-122.260;2023-06-10T04:45:08;14.80;77.30
54006;DHT22;39919;38.160;-122.260;2023-06-10T04:47:38;14.80;77.40
54006;DHT22;39919;38.160;-122.260;2023-06-10T04:50:08;14.80;77.70
54006;DHT22;39919;38.160;-122.260;2023-06-10T04:52:37;14.70;77.70
54006;DHT22;39919;38.160;-122.260;2023-06-10T04:55:08;14.70;92.80
54006;DHT22;39919;38.160;-122.260;2023-06-10T04:57:40;14.70;97.50
54006;DHT22;39919;38.160;-122.260;2023-06-10T05:00:10;14.60;98.80
54006;DHT22;39919;38.160;-122.260;2023-06-10T05:02:40;14.70;99.70
54006;DHT22;39919;38.160;-122.260;2023-06-10T05:05:09;14.70;99.90
54006;DHT22;39919;38.160;-122.260;2023-06-10T05:07:41;14.60;99.90
54006;DHT22;39919;38.160;-122.260;2023-06-10T05:10:10;14.60;99.90
54006;DHT22;39919;38.160;-122.260;2023-06-10T05:12:45;14.50;99.90
54006;DHT22;39919;38.160;-122.260;2023-06-10T05:15:20;14.60;99.90
54006;DHT22;39919;38.160;-122.260;2023-06-10T05:17:50;14.50;99.90
54006;DHT22;39919;38.160;-122.260;2023-06-10T05:20:22;14.50;99.90
54006;DHT22;39919;38.160;-122.260;2023-06-10T05:23:00;14.50;99.90
54006;DHT22;39919;38.160;-122.260;2023-06-10T05:25:33;14.50;99.90
54006;DHT22;39919;38.160;-122.260;2023-06-10T05:28:04;14.50;99.90
54006;DHT22;39919;38.160;-122.260;2023-06-10T06:03:35;14.10;97.10
54006;DHT22;39919;38.160;-122.260;2023-06-10T06:06:04;14.20;94.50
54006;DHT22;39919;38.160;-122.260;2023-06-10T06:08:34;14.20;95.90
54006;DHT22;39919;38.160;-122.260;2023-06-10T06:11:05;14.10;95.40
54006;DHT22;39919;38.160;-122.260;2023-06-10T06:13:36;14.10;95.90
54006;DHT22;39919;38.160;-122.260;2023-06-10T06:16:06;14.20;95.00
54006;DHT22;39919;38.160;-122.260;2023-06-10T06:18:35;14.10;97.40
54006;DHT22;39919;38.160;-122.260;2023-06-10T06:21:04;14.10;98.00
54006;DHT22;39919;38.160;-122.260;2023-06-10T06:23:33;14.10;95.80
54006;DHT22;39919;38.160;-122.260;2023-06-10T06:26:12;14.00;96.60
54006;DHT22;39919;38.160;-122.260;2023-06-10T06:28:46;14.00;92.70
54006;DHT22;39919;38.160;-122.260;2023-06-10T06:31:15;14.00;92.50
54006;DHT22;39919;38.160;-122.260;2023-06-10T06:33:44;14.00;92.50
54006;DHT22;39919;38.160;-122.260;2023-06-10T06:36:16;14.00;92.30
54006;DHT22;39919;38.160;-122.260;2023-06-10T06:38:51;14.00;92.50
54006;DHT22;39919;38.160;-122.260;2023-06-10T06:41:20;14.00;92.50
54006;DHT22;39919;38.160;-122.260;2023-06-10T06:43:58;14.00;92.60
54006;DHT22;39919;38.160;-122.260;2023-06-10T06:46:27;14.10;92.80
54006;DHT22;39919;38.160;-122.260;2023-06-10T06:48:57;14.10;92.80
54006;DHT22;39919;38.160;-122.260;2023-06-10T06:51:26;14.00;92.80
54006;DHT22;39919;38.160;-122.260;2023-06-10T06:53:59;14.10;92.90
54006;DHT22;39919;38.160;-122.260;2023-06-10T06:56:28;14.10;92.90
54006;DHT22;39919;38.160;-122.260;2023-06-10T06:59:02;14.10;93.00
54006;DHT22;39919;38.160;-122.260;2023-06-10T07:01:33;14.20;93.10
54006;DHT22;39919;38.160;-122.260;2023-06-10T07:04:03;14.20;93.40
54006;DHT22;39919;38.160;-122.260;2023-06-10T07:06:32;14.30;93.40
54006;DHT22;39919;38.160;-122.260;2023-06-10T07:09:05;14.30;93.50
54006;DHT22;39919;38.160;-122.260;2023-06-10T07:11:35;14.30;93.40
54006;DHT22;39919;38.160;-122.260;2023-06-10T07:14:12;14.30;93.40
54006;DHT22;39919;38.160;-122.260;2023-06-10T07:16:44;14.40;93.50
54006;DHT22;39919;38.160;-122.260;2023-06-10T07:19:16;14.40;93.90
54006;DHT22;39919;38.160;-122.260;2023-06-10T07:21:45;14.40;94.50
54006;DHT22;39919;38.160;-122.260;2023-06-10T07:24:26;14.50;94.40
54006;DHT22;39919;38.160;-122.260;2023-06-10T07:26:57;14.40;94.10
54006;DHT22;39919;38.160;-122.260;2023-06-10T07:29:34;14.50;94.10
54006;DHT22;39919;38.160;-122.260;2023-06-10T07:32:06;14.50;95.50
54006;DHT22;39919;38.160;-122.260;2023-06-10T07:34:35;14.50;94.10
54006;DHT22;39919;38.160;-122.260;2023-06-10T07:37:08;14.50;94.20
54006;DHT22;39919;38.160;-122.260;2023-06-10T07:39:42;14.50;94.20
54006;DHT22;39919;38.160;-122.260;2023-06-10T07:42:11;14.50;94.10
54006;DHT22;39919;38.160;-122.260;2023-06-10T07:44:42;14.50;94.10
54006;DHT22;39919;38.160;-122.260;2023-06-10T07:47:13;14.50;94.20
54006;DHT22;39919;38.160;-122.260;2023-06-10T07:49:42;14.50;94.20
54006;DHT22;39919;38.160;-122.260;2023-06-10T07:52:15;14.50;94.40
54006;DHT22;39919;38.160;-122.260;2023-06-10T07:54:44;14.50;94.30
54006;DHT22;39919;38.160;-122.260;2023-06-10T07:57:14;14.30;99.10
54006;DHT22;39919;38.160;-122.260;2023-06-10T07:59:46;14.40;94.30
54006;DHT22;39919;38.160;-122.260;2023-06-10T08:02:15;14.50;93.80
54006;DHT22;39919;38.160;-122.260;2023-06-10T08:04:45;14.50;93.60
54006;DHT22;39919;38.160;-122.260;2023-06-10T08:07:16;14.50;93.50
54006;DHT22;39919;38.160;-122.260;2023-06-10T08:09:46;14.50;93.50
54006;DHT22;39919;38.160;-122.260;2023-06-10T08:12:15;14.60;93.50
54006;DHT22;39919;38.160;-122.260;2023-06-10T08:14:47;14.60;93.60
54006;DHT22;39919;38.160;-122.260;2023-06-10T08:17:16;14.60;93.70
54006;DHT22;39919;38.160;-122.260;2023-06-10T08:19:45;14.50;93.50
54006;DHT22;39919;38.160;-122.260;2023-06-10T08:22:14;14.60;93.60
54006;DHT22;39919;38.160;-122.260;2023-06-10T08:24:44;14.60;93.70
54006;DHT22;39919;38.160;-122.260;2023-06-10T08:27:13;14.60;93.80
54006;DHT22;39919;38.160;-122.260;2023-06-10T08:29:42;14.60;93.80
54006;DHT22;39919;38.160;-122.260;2023-06-10T08:32:13;14.60;93.80
54006;DHT22;39919;38.160;-122.260;2023-06-10T08:34:42;14.60;93.90
54006;DHT22;39919;38.160;-122.260;2023-06-10T08:37:11;14.70;93.70
54006;DHT22;39919;38.160;-122.260;2023-06-10T08:39:42;14.70;93.40
54006;DHT22;39919;38.160;-122.260;2023-06-10T08:42:19;14.60;93.30
54006;DHT22;39919;38.160;-122.260;2023-06-10T08:44:53;14.70;93.30
54006;DHT22;39919;38.160;-122.260;2023-06-10T08:47:30;14.60;93.30
54006;DHT22;39919;38.160;-122.260;2023-06-10T08:50:03;14.70;93.30
54006;DHT22;39919;38.160;-122.260;2023-06-10T08:52:36;14.70;93.30
54006;DHT22;39919;38.160;-122.260;2023-06-10T08:55:10;14.70;93.30
54006;DHT22;39919;38.160;-122.260;2023-06-10T08:57:47;14.70;93.40
54006;DHT22;39919;38.160;-122.260;2023-06-10T09:00:17;14.70;93.40
54006;DHT22;39919;38.160;-122.260;2023-06-10T09:02:53;14.70;93.40
54006;DHT22;39919;38.160;-122.260;2023-06-10T09:05:23;14.70;93.50
54006;DHT22;39919;38.160;-122.260;2023-06-10T09:07:52;14.60;93.40
54006;DHT22;39919;38.160;-122.260;2023-06-10T09:10:25;14.60;93.40
54006;DHT22;39919;38.160;-122.260;2023-06-10T09:12:55;14.60;93.40
54006;DHT22;39919;38.160;-122.260;2023-06-10T09:15:24;14.60;93.40
54006;DHT22;39919;38.160;-122.260;2023-06-10T09:17:55;14.60;93.40
54006;DHT22;39919;38.160;-122.260;2023-06-10T09:20:30;14.60;93.40
54006;DHT22;39919;38.160;-122.260;2023-06-10T09:23:00;14.70;93.40
54006;DHT22;39919;38.160;-122.260;2023-06-10T09:25:39;14.60;93.30
54006;DHT22;39919;38.160;-122.260;2023-06-10T09:28:14;14.60;93.30
54006;DHT22;39919;38.160;-122.260;2023-06-10T09:30:43;14.60;93.30
54006;DHT22;39919;38.160;-122.260;2023-06-10T09:33:17;14.60;93.40
54006;DHT22;39919;38.160;-122.260;2023-06-10T09:35:47;14.60;93.40
54006;DHT22;39919;38.160;-122.260;2023-06-10T09:38:20;14.50;93.40
54006;DHT22;39919;38.160;-122.260;2023-06-10T09:40:52;14.50;93.50
54006;DHT22;39919;38.160;-122.260;2023-06-10T09:43:21;14.60;93.40
54006;DHT22;39919;38.160;-122.260;2023-06-10T09:45:51;14.60;93.50
54006;DHT22;39919;38.160;-122.260;2023-06-10T09:48:28;14.50;93.50
54006;DHT22;39919;38.160;-122.260;2023-06-10T09:50:59;14.50;93.30
54006;DHT22;39919;38.160;-122.260;2023-06-10T09:53:32;14.50;93.40
54006;DHT22;39919;38.160;-122.260;2023-06-10T09:56:02;14.50;93.20
54006;DHT22;39919;38.160;-122.260;2023-06-10T09:58:40;14.50;93.20
54006;DHT22;39919;38.160;-122.260;2023-06-10T10:01:10;14.50;93.10
54006;DHT22;39919;38.160;-122.260;2023-06-10T10:03:51;14.40;93.10
54006;DHT22;39919;38.160;-122.260;2023-06-10T10:06:21;14.50;93.00
54006;DHT22;39919;38.160;-122.260;2023-06-10T10:08:53;14.50;93.00
54006;DHT22;39919;38.160;-122.260;2023-06-10T10:11:23;14.50;93.00
54006;DHT22;39919;38.160;-122.260;2023-06-10T10:13:53;14.50;92.90
54006;DHT22;39919;38.160;-122.260;2023-06-10T10:16:29;14.50;93.10
54006;DHT22;39919;38.160;-122.260;2023-06-10T10:19:05;14.50;92.90
54006;DHT22;39919;38.160;-122.260;2023-06-10T10:21:43;14.50;92.80
54006;DHT22;39919;38.160;-122.260;2023-06-10T10:24:17;14.50;92.90
54006;DHT22;39919;38.160;-122.260;2023-06-10T10:26:51;14.40;92.80
54006;DHT22;39919;38.160;-122.260;2023-06-10T10:29:38;14.50;92.70
54006;DHT22;39919;38.160;-122.260;2023-06-10T10:32:08;14.50;93.00
54006;DHT22;39919;38.160;-122.260;2023-06-10T10:34:47;14.50;92.80
54006;DHT22;39919;38.160;-122.260;2023-06-10T10:37:19;14.40;92.80
54006;DHT22;39919;38.160;-122.260;2023-06-10T10:39:49;14.50;92.80
54006;DHT22;39919;38.160;-122.260;2023-06-10T10:42:22;14.40;92.90
54006;DHT22;39919;38.160;-122.260;2023-06-10T10:44:51;14.50;92.90
54006;DHT22;39919;38.160;-122.260;2023-06-10T10:47:23;14.40;93.00
54006;DHT22;39919;38.160;-122.260;2023-06-10T10:49:57;14.40;93.00
54006;DHT22;39919;38.160;-122.260;2023-06-10T10:52:28;14.50;93.10
54006;DHT22;39919;38.160;-122.260;2023-06-10T10:55:15;14.40;93.10
54006;DHT22;39919;38.160;-122.260;2023-06-10T10:57:44;14.50;93.00
54006;DHT22;39919;38.160;-122.260;2023-06-10T11:00:27;14.50;93.00
54006;DHT22;39919;38.160;-122.260;2023-06-10T11:02:59;14.40;92.90
54006;DHT22;39919;38.160;-122.260;2023-06-10T11:05:41;14.40;93.00
54006;DHT22;39919;38.160;-122.260;2023-06-10T11:08:15;14.50;93.10
54006;DHT22;39919;38.160;-122.260;2023-06-10T11:10:52;14.40;93.10
54006;DHT22;39919;38.160;-122.260;2023-06-10T11:13:22;14.40;93.10
54006;DHT22;39919;38.160;-122.260;2023-06-10T11:15:52;14.40;93.00
54006;DHT22;39919;38.160;-122.260;2023-06-10T11:18:25;14.40;93.30
54006;DHT22;39919;38.160;-122.260;2023-06-10T11:21:00;14.50;93.00
54006;DHT22;39919;38.160;-122.260;2023-06-10T11:23:39;14.40;93.00
54006;DHT22;39919;38.160;-122.260;2023-06-10T11:26:32;14.40;93.10
54006;DHT22;39919;38.160;-122.260;2023-06-10T11:29:08;14.50;93.00
54006;DHT22;39919;38.160;-122.260;2023-06-10T11:31:43;14.40;92.90
54006;DHT22;39919;38.160;-122.260;2023-06-10T11:34:13;14.40;92.80
54006;DHT22;39919;38.160;-122.260;2023-06-10T11:36:48;14.50;92.80
54006;DHT22;39919;38.160;-122.260;2023-06-10T11:39:18;14.50;93.20
54006;DHT22;39919;38.160;-122.260;2023-06-10T11:41:53;14.40;92.90
54006;DHT22;39919;38.160;-122.260;2023-06-10T11:44:28;14.40;92.80
54006;DHT22;39919;38.160;-122.260;2023-06-10T11:47:07;14.40;92.80
54006;DHT22;39919;38.160;-122.260;2023-06-10T11:49:38;14.40;92.70
54006;DHT22;39919;38.160;-122.260;2023-06-10T11:52:09;14.40;92.80
54006;DHT22;39919;38.160;-122.260;2023-06-10T11:54:39;14.40;92.80
54006;DHT22;39919;38.160;-122.260;2023-06-10T11:57:09;14.40;92.90
54006;DHT22;39919;38.160;-122.260;2023-06-10T11:59:38;14.40;93.10
54006;DHT22;39919;38.160;-122.260;2023-06-10T12:02:15;14.30;93.10
54006;DHT22;39919;38.160;-122.260;2023-06-10T12:04:47;14.30;93.10
54006;DHT22;39919;38.160;-122.260;2023-06-10T12:07:24;14.30;93.30
54006;DHT22;39919;38.160;-122.260;2023-06-10T12:09:59;14.30;93.80
54006;DHT22;39919;38.160;-122.260;2023-06-10T12:12:30;14.40;93.50
54006;DHT22;39919;38.160;-122.260;2023-06-10T12:15:00;14.30;93.60
54006;DHT22;39919;38.160;-122.260;2023-06-10T12:17:38;14.30;93.70
54006;DHT22;39919;38.160;-122.260;2023-06-10T12:20:25;14.30;93.60
54006;DHT22;39919;38.160;-122.260;2023-06-10T12:23:08;14.30;93.60
54006;DHT22;39919;38.160;-122.260;2023-06-10T12:25:47;14.30;93.70
54006;DHT22;39919;38.160;-122.260;2023-06-10T12:28:20;14.30;93.60
54006;DHT22;39919;38.160;-122.260;2023-06-10T12:30:51;14.30;93.70
54006;DHT22;39919;38.160;-122.260;2023-06-10T12:33:29;14.30;93.80
54006;DHT22;39919;38.160;-122.260;2023-06-10T12:36:01;14.30;94.00
54006;DHT22;39919;38.160;-122.260;2023-06-10T12:38:35;14.30;93.90
54006;DHT22;39919;38.160;-122.260;2023-06-10T12:41:05;14.30;93.90
54006;DHT22;39919;38.160;-122.260;2023-06-10T12:43:34;14.30;94.00
54006;DHT22;39919;38.160;-122.260;2023-06-10T12:46:09;14.30;93.90
54006;DHT22;39919;38.160;-122.260;2023-06-10T12:48:49;14.20;93.90
54006;DHT22;39919;38.160;-122.260;2023-06-10T12:51:22;14.30;93.90
54006;DHT22;39919;38.160;-122.260;2023-06-10T12:53:54;14.30;94.10
54006;DHT22;39919;38.160;-122.260;2023-06-10T12:56:23;14.30;94.20
54006;DHT22;39919;38.160;-122.260;2023-06-10T12:58:56;14.30;94.10
54006;DHT22;39919;38.160;-122.260;2023-06-10T13:01:25;14.30;94.30
54006;DHT22;39919;38.160;-122.260;2023-06-10T13:03:57;14.30;94.30
54006;DHT22;39919;38.160;-122.260;2023-06-10T13:06:26;14.30;94.60
54006;DHT22;39919;38.160;-122.260;2023-06-10T13:09:02;14.20;94.60
54006;DHT22;39919;38.160;-122.260;2023-06-10T13:11:33;14.30;94.90
54006;DHT22;39919;38.160;-122.260;2023-06-10T13:14:04;14.30;95.00
54006;DHT22;39919;38.160;-122.260;2023-06-10T13:16:33;14.30;94.90
54006;DHT22;39919;38.160;-122.260;2023-06-10T13:19:05;14.30;94.90
54006;DHT22;39919;38.160;-122.260;2023-06-10T13:21:34;14.30;94.90
54006;DHT22;39919;38.160;-122.260;2023-06-10T13:24:08;14.20;94.90
54006;DHT22;39919;38.160;-122.260;2023-06-10T13:26:37;14.30;94.90
54006;DHT22;39919;38.160;-122.260;2023-06-10T13:29:08;14.30;94.90
54006;DHT22;39919;38.160;-122.260;2023-06-10T13:31:40;14.30;94.90
54006;DHT22;39919;38.160;-122.260;2023-06-10T13:34:13;14.30;94.90
54006;DHT22;39919;38.160;-122.260;2023-06-10T13:36:42;14.30;94.90
54006;DHT22;39919;38.160;-122.260;2023-06-10T13:39:13;14.30;95.00
54006;DHT22;39919;38.160;-122.260;2023-06-10T13:41:45;14.30;95.10
54006;DHT22;39919;38.160;-122.260;2023-06-10T13:44:14;14.40;95.30
54006;DHT22;39919;38.160;-122.260;2023-06-10T13:46:43;14.40;95.30
54006;DHT22;39919;38.160;-122.260;2023-06-10T13:49:13;14.40;95.30
54006;DHT22;39919;38.160;-122.260;2023-06-10T13:51:42;14.30;95.40
54006;DHT22;39919;38.160;-122.260;2023-06-10T13:54:13;14.40;95.30
54006;DHT22;39919;38.160;-122.260;2023-06-10T13:56:42;14.40;95.30
54006;DHT22;39919;38.160;-122.260;2023-06-10T13:59:13;14.40;95.30
54006;DHT22;39919;38.160;-122.260;2023-06-10T14:01:43;14.40;95.40
54006;DHT22;39919;38.160;-122.260;2023-06-10T14:04:15;14.40;95.40
54006;DHT22;39919;38.160;-122.260;2023-06-10T14:06:46;14.40;95.50
54006;DHT22;39919;38.160;-122.260;2023-06-10T14:09:17;14.40;95.60
54006;DHT22;39919;38.160;-122.260;2023-06-10T14:11:48;14.40;95.50
54006;DHT22;39919;38.160;-122.260;2023-06-10T14:14:20;14.40;95.50
54006;DHT22;39919;38.160;-122.260;2023-06-10T14:17:02;14.50;95.50
54006;DHT22;39919;38.160;-122.260;2023-06-10T14:19:32;14.50;95.50
54006;DHT22;39919;38.160;-122.260;2023-06-10T14:22:03;14.50;95.60
54006;DHT22;39919;38.160;-122.260;2023-06-10T14:24:37;14.50;95.50
54006;DHT22;39919;38.160;-122.260;2023-06-10T14:27:10;14.50;95.50
54006;DHT22;39919;38.160;-122.260;2023-06-10T14:29:39;14.50;95.70
54006;DHT22;39919;38.160;-122.260;2023-06-10T14:32:08;14.60;95.70
54006;DHT22;39919;38.160;-122.260;2023-06-10T14:34:40;14.60;95.80
54006;DHT22;39919;38.160;-122.260;2023-06-10T14:37:11;14.60;95.80
54006;DHT22;39919;38.160;-122.260;2023-06-10T14:39:42;14.50;95.80
54006;DHT22;39919;38.160;-122.260;2023-06-10T14:42:13;14.60;95.80
54006;DHT22;39919;38.160;-122.260;2023-06-10T14:44:47;14.60;95.80
54006;DHT22;39919;38.160;-122.260;2023-06-10T14:47:17;14.70;96.00
54006;DHT22;39919;38.160;-122.260;2023-06-10T14:49:49;14.60;96.10
54006;DHT22;39919;38.160;-122.260;2023-06-10T14:52:18;14.70;96.20
54006;DHT22;39919;38.160;-122.260;2023-06-10T14:55:01;14.70;96.40
54006;DHT22;39919;38.160;-122.260;2023-06-10T14:57:32;14.80;96.50
54006;DHT22;39919;38.160;-122.260;2023-06-10T15:00:05;14.80;96.70
54006;DHT22;39919;38.160;-122.260;2023-06-10T15:02:35;14.80;96.90
54006;DHT22;39919;38.160;-122.260;2023-06-10T15:05:05;14.90;97.10
54006;DHT22;39919;38.160;-122.260;2023-06-10T15:07:35;14.90;97.40
54006;DHT22;39919;38.160;-122.260;2023-06-10T15:10:20;15.00;97.70
54006;DHT22;39919;38.160;-122.260;2023-06-10T15:12:54;15.00;97.80
54006;DHT22;39919;38.160;-122.260;2023-06-10T15:15:28;15.00;98.00
54006;DHT22;39919;38.160;-122.260;2023-06-10T15:17:57;15.10;98.10
54006;DHT22;39919;38.160;-122.260;2023-06-10T15:20:26;15.10;98.00
54006;DHT22;39919;38.160;-122.260;2023-06-10T15:22:58;15.10;97.90
54006;DHT22;39919;38.160;-122.260;2023-06-10T15:25:32;15.20;97.80
54006;DHT22;39919;38.160;-122.260;2023-06-10T15:28:02;15.20;97.70
54006;DHT22;39919;38.160;-122.260;2023-06-10T15:30:32;15.30;97.70
54006;DHT22;39919;38.160;-122.260;2023-06-10T15:33:01;15.30;97.70
54006;DHT22;39919;38.160;-122.260;2023-06-10T15:35:39;15.40;97.70
54006;DHT22;39919;38.160;-122.260;2023-06-10T15:38:08;15.40;97.60
54006;DHT22;39919;38.160;-122.260;2023-06-10T15:40:44;15.40;97.40
54006;DHT22;39919;38.160;-122.260;2023-06-10T15:43:13;15.50;97.20
54006;DHT22;39919;38.160;-122.260;2023-06-10T15:45:45;15.50;97.30
54006;DHT22;39919;38.160;-122.260;2023-06-10T15:48:17;15.60;97.00
54006;DHT22;39919;38.160;-122.260;2023-06-10T15:50:54;15.60;96.80
54006;DHT22;39919;38.160;-122.260;2023-06-10T15:53:23;15.70;96.60